createdAt,value
2019-05-01T00:01:14.667Z,10.40
2019-05-01T00:03:51.043Z,10.40
2019-05-01T00:06:21.433Z,10.30
2019-05-01T00:08:50.216Z,10.20
2019-05-01T00:11:19.034Z,10.10
2019-05-01T00:13:47.838Z,10.10
2019-05-01T00:16:16.591Z,10.00
2019-05-01T00:18:45.328Z,10.10
2019-05-01T00:21:14.686Z,10.00
2019-05-01T00:23:43.416Z,10.00
2019-05-01T00:26:12.112Z,9.90
2019-05-01T00:28:40.903Z,9.90
2019-05-01T00:31:09.668Z,9.90
2019-05-01T00:33:38.414Z,9.90
2019-05-01T00:36:07.112Z,9.90
2019-05-01T00:38:35.814Z,9.90
2019-05-01T00:41:04.594Z,9.80
2019-05-01T00:43:33.357Z,9.80
2019-05-01T00:46:02.134Z,9.70
2019-05-01T00:48:30.758Z,9.70
2019-05-01T00:50:59.548Z,9.80
2019-05-01T00:53:28.413Z,9.80
2019-05-01T00:56:07.739Z,9.70
2019-05-01T00:58:54.805Z,9.70
2019-05-01T01:01:28.105Z,9.70
2019-05-01T01:03:56.949Z,9.70
2019-05-01T01:06:30.813Z,9.60
2019-05-01T01:08:59.538Z,9.60
2019-05-01T01:11:28.323Z,9.60
2019-05-01T01:13:57.051Z,9.70
2019-05-01T01:16:25.811Z,9.70
2019-05-01T01:18:54.496Z,9.70
2019-05-01T01:21:23.267Z,9.60
2019-05-01T01:23:52.162Z,9.60
2019-05-01T01:26:20.937Z,9.60
2019-05-01T01:28:49.737Z,9.60
2019-05-01T01:31:18.509Z,9.60
2019-05-01T01:33:47.306Z,9.60
2019-05-01T01:36:16.068Z,9.50
2019-05-01T01:38:44.799Z,9.50
2019-05-01T01:41:13.679Z,9.50
2019-05-01T01:43:46.973Z,9.50
2019-05-01T01:46:17.388Z,9.40
2019-05-01T01:48:46.245Z,9.30
2019-05-01T01:51:15.031Z,9.30
2019-05-01T01:53:43.895Z,9.20
2019-05-01T01:56:12.726Z,9.20
2019-05-01T01:58:41.569Z,9.20
2019-05-01T02:01:29.548Z,9.20
2019-05-01T02:03:59.961Z,9.20
2019-05-01T02:06:28.755Z,9.20
2019-05-01T02:08:57.537Z,9.20
2019-05-01T02:11:26.744Z,9.20
2019-05-01T02:13:56.203Z,9.10
2019-05-01T02:16:49.886Z,9.00
2019-05-01T02:19:18.666Z,9.00
2019-05-01T02:21:47.355Z,9.00
2019-05-01T02:24:16.192Z,8.90
2019-05-01T02:26:52.111Z,8.90
2019-05-01T02:29:22.743Z,8.80
2019-05-01T02:31:53.462Z,8.90
2019-05-01T02:34:24.110Z,8.80
2019-05-01T02:36:54.632Z,8.90
2019-05-01T02:39:24.438Z,8.90
2019-05-01T02:41:54.751Z,8.90
2019-05-01T02:44:32.141Z,9.00
2019-05-01T02:47:03.836Z,9.00
2019-05-01T02:49:41.322Z,9.00
2019-05-01T02:52:11.926Z,9.00
2019-05-01T02:54:43.655Z,8.90
2019-05-01T02:57:18.710Z,8.80
2019-05-01T02:59:50.464Z,8.70
2019-05-01T03:02:22.462Z,8.70
2019-05-01T03:04:52.354Z,8.70
2019-05-01T03:07:22.721Z,8.70
2019-05-01T03:09:52.158Z,8.70
2019-05-01T03:12:23.321Z,8.70
2019-05-01T03:14:53.598Z,8.60
2019-05-01T03:17:41.045Z,8.60
2019-05-01T03:20:27.083Z,8.50
2019-05-01T03:23:13.479Z,8.60
2019-05-01T03:25:43.184Z,8.70
2019-05-01T03:28:12.803Z,8.60
2019-05-01T03:30:41.562Z,8.60
2019-05-01T03:33:10.365Z,8.60
2019-05-01T03:35:39.276Z,8.70
2019-05-01T03:38:08.387Z,8.70
2019-05-01T03:40:37.363Z,8.70
2019-05-01T03:43:06.352Z,8.70
2019-05-01T03:45:35.443Z,8.70
2019-05-01T03:48:04.331Z,8.70
2019-05-01T03:50:33.102Z,8.60
2019-05-01T03:53:02.615Z,8.60
2019-05-01T03:55:31.574Z,8.60
2019-05-01T03:58:00.469Z,8.60
2019-05-01T04:00:40.035Z,8.50
2019-05-01T04:03:22.863Z,8.50
2019-05-01T04:05:51.985Z,8.60
2019-05-01T04:08:20.726Z,8.60
2019-05-01T04:10:49.633Z,8.60
2019-05-01T04:13:18.395Z,8.70
2019-05-01T04:15:47.295Z,8.60
2019-05-01T04:18:16.598Z,8.50
2019-05-01T04:20:45.792Z,8.40
2019-05-01T04:23:14.864Z,8.50
2019-05-01T04:25:43.757Z,8.50
2019-05-01T04:28:30.731Z,8.50
2019-05-01T04:31:17.407Z,8.50
2019-05-01T04:33:48.143Z,8.50
2019-05-01T04:36:21.321Z,8.50
2019-05-01T04:38:50.243Z,8.50
2019-05-01T04:41:19.131Z,8.50
2019-05-01T04:43:47.937Z,8.40
2019-05-01T04:46:16.738Z,8.40
2019-05-01T04:48:45.572Z,8.40
2019-05-01T04:51:14.561Z,8.30
2019-05-01T04:53:43.345Z,8.30
2019-05-01T04:56:30.063Z,8.30
2019-05-01T04:58:59.470Z,8.30
2019-05-01T05:01:29.959Z,8.20
2019-05-01T05:03:59.340Z,8.20
2019-05-01T05:06:28.188Z,8.30
2019-05-01T05:08:57.597Z,8.20
2019-05-01T05:11:30.808Z,8.30
2019-05-01T05:14:17.338Z,8.40
2019-05-01T05:16:50.497Z,8.30
2019-05-01T05:19:19.243Z,8.20
2019-05-01T05:21:48.678Z,8.20
2019-05-01T05:24:17.874Z,8.30
2019-05-01T05:26:46.864Z,8.30
2019-05-01T05:29:17.223Z,8.40
2019-05-01T05:31:46.701Z,8.40
2019-05-01T05:34:18.216Z,8.50
2019-05-01T05:36:49.468Z,8.50
2019-05-01T05:39:26.674Z,8.40
2019-05-01T05:41:57.001Z,8.40
2019-05-01T05:44:25.982Z,8.40
2019-05-01T05:46:54.797Z,8.40
2019-05-01T05:49:23.610Z,8.40
2019-05-01T05:51:55.428Z,8.40
2019-05-01T05:54:32.448Z,8.50
2019-05-01T05:57:21.549Z,8.40
2019-05-01T05:59:53.681Z,8.50
2019-05-01T06:02:35.170Z,8.50
2019-05-01T06:05:07.275Z,8.50
2019-05-01T06:07:56.717Z,8.50
2019-05-01T06:10:31.144Z,8.60
2019-05-01T06:13:03.291Z,8.60
2019-05-01T06:15:41.182Z,8.70
2019-05-01T06:18:11.585Z,8.70
2019-05-01T06:20:45.182Z,8.70
2019-05-01T06:23:20.657Z,8.80
2019-05-01T06:26:02.289Z,8.80
2019-05-01T06:28:30.466Z,8.90
2019-05-01T06:31:23.213Z,9.00
2019-05-01T06:33:53.092Z,9.00
2019-05-01T06:36:20.041Z,9.00
2019-05-01T06:38:49.238Z,9.10
2019-05-01T06:41:19.283Z,9.10
2019-05-01T06:43:56.880Z,9.00
2019-05-01T06:46:35.482Z,9.10
2019-05-01T06:49:29.115Z,9.20
2019-05-01T06:52:02.351Z,9.10
2019-05-01T06:54:32.359Z,9.20
2019-05-01T06:57:03.495Z,9.40
2019-05-01T06:59:33.519Z,9.50
2019-05-01T07:02:02.873Z,9.50
2019-05-01T07:04:38.134Z,9.50
2019-05-01T07:07:06.674Z,9.40
2019-05-01T07:09:35.783Z,9.40
2019-05-01T07:12:07.237Z,9.50
2019-05-01T07:14:36.550Z,9.60
2019-05-01T07:17:08.933Z,9.60
2019-05-01T07:19:52.965Z,9.70
2019-05-01T07:22:21.947Z,9.80
2019-05-01T07:24:50.936Z,10.00
2019-05-01T07:27:23.914Z,10.00
2019-05-01T07:29:52.014Z,10.20
2019-05-01T07:32:21.133Z,10.10
2019-05-01T07:34:49.917Z,10.30
2019-05-01T07:37:20.748Z,10.30
2019-05-01T07:39:51.772Z,10.40
2019-05-01T07:42:28.457Z,10.30
2019-05-01T07:45:03.797Z,10.40
2019-05-01T07:47:42.875Z,10.40
2019-05-01T07:50:12.935Z,10.60
2019-05-01T07:52:42.382Z,10.80
2019-05-01T07:55:13.020Z,10.90
2019-05-01T07:57:44.434Z,10.90
2019-05-01T08:00:23.737Z,11.00
2019-05-01T08:02:52.454Z,11.30
2019-05-01T08:05:21.237Z,11.30
2019-05-01T08:07:50.028Z,11.40
2019-05-01T08:10:20.943Z,11.20
2019-05-01T08:12:49.181Z,11.20
2019-05-01T08:15:17.972Z,11.40
2019-05-01T08:17:48.807Z,11.50
2019-05-01T08:20:22.138Z,11.40
2019-05-01T08:22:50.930Z,11.40
2019-05-01T08:25:19.695Z,11.30
2019-05-01T08:27:50.934Z,11.30
2019-05-01T08:30:37.471Z,11.50
2019-05-01T08:33:14.703Z,11.80
2019-05-01T08:35:43.990Z,11.90
2019-05-01T08:38:12.688Z,11.90
2019-05-01T08:40:41.481Z,11.80
2019-05-01T08:43:13.660Z,11.80
2019-05-01T08:45:58.343Z,11.90
2019-05-01T08:48:35.890Z,12.00
2019-05-01T08:51:02.463Z,12.40
2019-05-01T08:53:31.249Z,12.60
2019-05-01T08:55:59.961Z,12.50
2019-05-01T08:58:28.750Z,12.60
2019-05-01T09:00:57.531Z,13.00
2019-05-01T09:03:26.507Z,13.10
2019-05-01T09:05:57.557Z,13.20
2019-05-01T09:08:27.069Z,13.40
2019-05-01T09:11:00.268Z,13.30
2019-05-01T09:13:26.746Z,13.50
2019-05-01T09:15:55.471Z,13.40
2019-05-01T09:18:24.150Z,13.60
2019-05-01T09:20:54.458Z,13.40
2019-05-01T09:23:23.249Z,13.40
2019-05-01T09:25:53.668Z,13.40
2019-05-01T09:28:24.110Z,13.60
2019-05-01T09:31:01.281Z,13.80
2019-05-01T09:33:30.763Z,14.10
2019-05-01T09:35:57.860Z,14.30
2019-05-01T09:38:26.658Z,14.30
2019-05-01T09:40:55.371Z,14.60
2019-05-01T09:43:24.157Z,14.70
2019-05-01T09:45:52.933Z,14.80
2019-05-01T09:48:21.795Z,15.10
2019-05-01T09:50:52.183Z,15.10
2019-05-01T09:53:35.485Z,15.10
2019-05-01T09:56:07.771Z,15.30
2019-05-01T09:58:36.456Z,15.50
2019-05-01T10:01:07.698Z,15.40
2019-05-01T10:03:36.434Z,15.40
2019-05-01T10:06:05.655Z,15.00
2019-05-01T10:08:34.777Z,15.00
2019-05-01T10:11:06.751Z,14.80
2019-05-01T10:13:35.399Z,14.90
2019-05-01T10:16:04.313Z,14.90
2019-05-01T10:18:33.021Z,14.90
2019-05-01T10:21:01.684Z,15.40
2019-05-01T10:23:30.303Z,15.60
2019-05-01T10:26:00.599Z,15.60
2019-05-01T10:28:31.009Z,15.60
2019-05-01T10:31:01.556Z,15.80
2019-05-01T10:33:49.706Z,15.80
2019-05-01T10:36:22.793Z,15.80
2019-05-01T10:38:51.887Z,15.80
2019-05-01T10:41:20.627Z,16.00
2019-05-01T10:43:49.286Z,16.20
2019-05-01T10:46:17.998Z,16.20
2019-05-01T10:48:46.814Z,16.40
2019-05-01T10:51:15.580Z,16.50
2019-05-01T10:53:44.362Z,16.60
2019-05-01T10:56:13.088Z,16.80
2019-05-01T10:58:41.813Z,16.80
2019-05-01T11:01:12.215Z,17.00
2019-05-01T11:03:42.685Z,17.10
2019-05-01T11:06:11.521Z,17.10
2019-05-01T11:08:40.429Z,16.70
2019-05-01T11:11:09.013Z,16.90
2019-05-01T11:13:37.704Z,17.00
2019-05-01T11:16:14.453Z,17.10
2019-05-01T11:18:43.167Z,16.90
2019-05-01T11:21:11.938Z,17.10
2019-05-01T11:23:40.658Z,17.40
2019-05-01T11:26:09.426Z,17.50
2019-05-01T11:28:38.254Z,17.70
2019-05-01T11:31:08.687Z,17.70
2019-05-01T11:33:50.820Z,17.80
2019-05-01T11:36:24.572Z,17.80
2019-05-01T11:38:57.700Z,17.90
2019-05-01T11:41:37.143Z,17.40
2019-05-01T11:44:05.920Z,17.80
2019-05-01T11:46:34.715Z,17.90
2019-05-01T11:49:03.503Z,17.90
2019-05-01T11:51:32.241Z,18.30
2019-05-01T11:54:02.294Z,18.50
2019-05-01T11:56:31.133Z,18.60
2019-05-01T11:58:59.850Z,18.20
2019-05-01T12:01:28.644Z,18.10
2019-05-01T12:03:57.502Z,18.00
2019-05-01T12:06:26.314Z,18.20
2019-05-01T12:08:55.036Z,17.80
2019-05-01T12:11:25.371Z,18.10
2019-05-01T12:13:54.190Z,18.40
2019-05-01T12:16:26.969Z,18.20
2019-05-01T12:18:55.696Z,18.40
2019-05-01T12:21:24.396Z,18.40
2019-05-01T12:23:53.052Z,18.50
2019-05-01T12:26:21.748Z,18.90
2019-05-01T12:28:50.682Z,19.20
2019-05-01T12:31:19.346Z,19.40
2019-05-01T12:33:48.132Z,19.30
2019-05-01T12:36:16.986Z,19.00
2019-05-01T12:38:45.741Z,19.00
2019-05-01T12:41:18.831Z,19.10
2019-05-01T12:43:47.500Z,19.10
2019-05-01T12:46:17.820Z,18.80
2019-05-01T12:48:46.674Z,18.90
2019-05-01T12:51:15.441Z,19.20
2019-05-01T12:53:54.821Z,19.50
2019-05-01T12:56:41.046Z,19.90
2019-05-01T12:59:09.824Z,19.90
2019-05-01T13:01:38.565Z,19.70
2019-05-01T13:04:07.346Z,19.70
2019-05-01T13:06:48.635Z,19.90
2019-05-01T13:09:08.117Z,20.40
2019-05-01T13:11:36.918Z,20.90
2019-05-01T13:14:05.680Z,20.50
2019-05-01T13:16:34.506Z,19.90
2019-05-01T13:19:03.254Z,19.70
2019-05-01T13:21:32.036Z,20.20
2019-05-01T13:24:00.863Z,20.40
2019-05-01T13:26:40.484Z,20.30
2019-05-01T13:29:13.832Z,20.00
2019-05-01T13:31:53.303Z,20.30
2019-05-01T13:34:24.999Z,20.30
2019-05-01T13:37:02.938Z,20.10
2019-05-01T13:39:24.211Z,20.30
2019-05-01T13:41:53.428Z,20.80
2019-05-01T13:44:22.341Z,20.80
2019-05-01T13:46:51.041Z,20.70
2019-05-01T13:49:19.701Z,20.60
2019-05-01T13:51:48.463Z,20.50
2019-05-01T13:54:17.274Z,20.20
2019-05-01T13:56:46.147Z,20.00
2019-05-01T13:59:15.358Z,19.70
2019-05-01T14:01:44.115Z,20.00
2019-05-01T14:04:13.505Z,19.90
2019-05-01T14:06:42.170Z,19.50
2019-05-01T14:09:12.593Z,19.60
2019-05-01T14:11:41.210Z,19.20
2019-05-01T14:14:09.952Z,19.60
2019-05-01T14:16:38.757Z,19.50
2019-05-01T14:19:07.520Z,19.30
2019-05-01T14:21:37.956Z,19.30
2019-05-01T14:24:20.416Z,19.40
2019-05-01T14:26:57.951Z,19.30
2019-05-01T14:29:26.637Z,19.20
2019-05-01T14:31:55.388Z,19.10
2019-05-01T14:34:24.338Z,19.20
2019-05-01T14:36:53.126Z,19.40
2019-05-01T14:39:21.982Z,19.20
2019-05-01T14:41:51.899Z,19.30
2019-05-01T14:44:20.604Z,19.30
2019-05-01T14:46:49.469Z,19.20
2019-05-01T14:49:18.231Z,18.90
2019-05-01T14:51:46.937Z,19.20
2019-05-01T14:54:15.739Z,19.10
2019-05-01T14:56:44.464Z,18.60
2019-05-01T14:59:13.258Z,18.60
2019-05-01T15:01:42.146Z,18.40
2019-05-01T15:04:10.812Z,18.30
2019-05-01T15:06:39.521Z,18.70
2019-05-01T15:09:08.589Z,19.10
2019-05-01T15:11:37.918Z,19.10
2019-05-01T15:14:08.360Z,19.70
2019-05-01T15:16:38.765Z,19.70
2019-05-01T15:19:14.736Z,20.50
2019-05-01T15:21:46.067Z,20.70
2019-05-01T15:24:14.728Z,21.30
2019-05-01T15:26:43.490Z,20.40
2019-05-01T15:29:12.373Z,20.40
2019-05-01T15:31:41.279Z,20.40
2019-05-01T15:34:10.325Z,20.80
2019-05-01T15:36:39.063Z,21.40
2019-05-01T15:39:11.097Z,21.50
2019-05-01T15:41:57.563Z,21.60
2019-05-01T15:44:28.202Z,21.70
2019-05-01T15:46:56.937Z,22.10
2019-05-01T15:49:25.773Z,22.00
2019-05-01T15:51:54.558Z,21.90
2019-05-01T15:54:23.277Z,22.20
2019-05-01T15:56:52.039Z,22.60
2019-05-01T15:59:21.091Z,21.60
2019-05-01T16:01:49.828Z,21.00
2019-05-01T16:04:18.553Z,20.90
2019-05-01T16:06:47.442Z,20.90
2019-05-01T16:09:16.650Z,20.50
2019-05-01T16:12:03.335Z,20.20
2019-05-01T16:14:32.195Z,19.30
2019-05-01T16:17:01.000Z,19.00
2019-05-01T16:19:29.661Z,19.10
2019-05-01T16:21:58.397Z,19.40
2019-05-01T16:24:27.169Z,19.70
2019-05-01T16:26:55.842Z,19.70
2019-05-01T16:29:24.466Z,20.00
2019-05-01T16:31:53.289Z,20.10
2019-05-01T16:34:21.939Z,19.60
2019-05-01T16:36:50.700Z,19.30
2019-05-01T16:39:26.927Z,18.90
2019-05-01T16:41:55.729Z,18.70
2019-05-01T16:44:24.493Z,18.60
2019-05-01T16:46:53.233Z,18.70
2019-05-01T16:49:21.918Z,18.70
2019-05-01T16:51:50.661Z,18.60
2019-05-01T16:54:19.405Z,18.10
2019-05-01T16:56:48.158Z,18.00
2019-05-01T16:59:16.843Z,18.20
2019-05-01T17:01:47.374Z,17.70
2019-05-01T17:04:26.289Z,18.20
2019-05-01T17:07:12.669Z,18.10
2019-05-01T17:09:58.035Z,18.10
2019-05-01T17:12:28.839Z,18.30
2019-05-01T17:14:57.629Z,18.40
2019-05-01T17:17:26.966Z,18.20
2019-05-01T17:19:55.782Z,18.40
2019-05-01T17:22:24.495Z,18.50
2019-05-01T17:24:53.316Z,18.50
2019-05-01T17:27:22.118Z,18.10
2019-05-01T17:29:50.911Z,18.10
2019-05-01T17:32:19.607Z,18.20
2019-05-01T17:34:48.612Z,18.20
2019-05-01T17:37:17.411Z,17.70
2019-05-01T17:39:46.221Z,17.20
2019-05-01T17:42:14.933Z,17.00
2019-05-01T17:44:43.705Z,16.70
2019-05-01T17:47:12.495Z,16.60
2019-05-01T17:49:44.832Z,16.50
2019-05-01T17:52:11.550Z,16.30
2019-05-01T17:54:40.316Z,16.10
2019-05-01T17:57:08.967Z,15.90
2019-05-01T17:59:37.744Z,15.80
2019-05-01T18:02:24.398Z,15.70
2019-05-01T18:04:54.726Z,15.60
2019-05-01T18:07:23.736Z,15.50
2019-05-01T18:09:55.708Z,15.40
2019-05-01T18:12:23.446Z,15.20
2019-05-01T18:14:53.465Z,15.00
2019-05-01T18:17:25.099Z,14.80
2019-05-01T18:19:53.897Z,14.80
2019-05-01T18:22:26.896Z,14.70
2019-05-01T18:24:59.700Z,14.60
2019-05-01T18:27:39.017Z,14.50
2019-05-01T18:30:10.396Z,14.40
2019-05-01T18:32:41.501Z,14.30
2019-05-01T18:35:14.064Z,14.10
2019-05-01T18:37:52.860Z,14.00
2019-05-01T18:40:29.197Z,13.80
2019-05-01T18:42:57.975Z,13.80
2019-05-01T18:45:47.587Z,13.70
2019-05-01T18:48:16.683Z,13.60
2019-05-01T18:50:49.309Z,13.50
2019-05-01T18:53:16.312Z,13.40
2019-05-01T18:55:45.073Z,13.30
2019-05-01T18:58:15.335Z,13.30
2019-05-01T19:00:44.183Z,13.20
2019-05-01T19:03:12.992Z,13.10
2019-05-01T19:05:43.189Z,13.00
2019-05-01T19:08:12.177Z,12.90
2019-05-01T19:10:41.030Z,12.90
2019-05-01T19:13:10.188Z,12.70
2019-05-01T19:15:39.065Z,12.70
2019-05-01T19:18:07.960Z,12.60
2019-05-01T19:20:36.729Z,12.60
2019-05-01T19:23:05.685Z,12.50
2019-05-01T19:25:34.492Z,12.40
2019-05-01T19:28:04.643Z,12.40
2019-05-01T19:30:33.444Z,12.40
2019-05-01T19:33:02.128Z,12.30
2019-05-01T19:35:34.048Z,12.20
2019-05-01T19:38:01.307Z,12.20
2019-05-01T19:40:32.571Z,12.20
2019-05-01T19:43:00.584Z,12.10
2019-05-01T19:45:29.397Z,12.00
2019-05-01T19:47:58.146Z,11.90
2019-05-01T19:50:26.925Z,11.80
2019-05-01T19:52:55.691Z,11.80
2019-05-01T19:55:24.429Z,11.70
2019-05-01T19:57:53.204Z,11.60
2019-05-01T20:00:27.777Z,11.50
2019-05-01T20:02:59.053Z,11.40
2019-05-01T20:05:27.517Z,11.40
2019-05-01T20:07:57.909Z,11.30
2019-05-01T20:10:26.681Z,11.20
2019-05-01T20:12:55.521Z,11.20
2019-05-01T20:15:26.567Z,11.00
2019-05-01T20:17:55.274Z,11.00
2019-05-01T20:20:24.058Z,11.00
2019-05-01T20:22:55.142Z,11.00
2019-05-01T20:25:23.124Z,10.90
2019-05-01T20:27:53.209Z,10.90
2019-05-01T20:30:22.104Z,10.80
2019-05-01T20:32:50.890Z,10.80
2019-05-01T20:35:23.966Z,10.70
2019-05-01T20:37:50.059Z,10.60
2019-05-01T20:40:18.859Z,10.60
2019-05-01T20:42:47.626Z,10.50
2019-05-01T20:45:18.344Z,10.40
2019-05-01T20:47:48.184Z,10.40
2019-05-01T20:50:17.251Z,10.40
2019-05-01T20:52:45.950Z,10.30
2019-05-01T20:55:15.234Z,10.30
2019-05-01T20:57:45.524Z,10.20
2019-05-01T21:00:16.681Z,10.10
2019-05-01T21:02:44.844Z,10.20
2019-05-01T21:05:15.266Z,10.10
2019-05-01T21:07:45.699Z,10.00
2019-05-01T21:10:24.430Z,10.00
2019-05-01T21:12:44.832Z,9.90
2019-05-01T21:15:13.749Z,9.80
2019-05-01T21:17:44.197Z,9.80
2019-05-01T21:20:13.430Z,9.70
2019-05-01T21:22:43.512Z,9.60
2019-05-01T21:25:13.805Z,9.60
2019-05-01T21:27:44.408Z,9.60
2019-05-01T21:30:13.851Z,9.50
2019-05-01T21:32:44.377Z,9.50
2019-05-01T21:35:13.742Z,9.40
2019-05-01T21:37:42.505Z,9.30
2019-05-01T21:40:12.855Z,9.20
2019-05-01T21:42:42.873Z,9.20
2019-05-01T21:45:12.719Z,9.10
2019-05-01T21:47:42.633Z,9.10
2019-05-01T21:50:13.188Z,9.10
2019-05-01T21:52:43.653Z,9.10
2019-05-01T21:55:12.242Z,9.10
2019-05-01T21:57:40.967Z,9.10
2019-05-01T22:00:10.136Z,9.10
2019-05-01T22:02:41.684Z,9.00
2019-05-01T22:05:09.557Z,9.00
2019-05-01T22:07:38.316Z,9.00
2019-05-01T22:10:08.206Z,9.00
2019-05-01T22:12:36.908Z,8.90
2019-05-01T22:15:11.108Z,8.90
2019-05-01T22:17:50.071Z,8.90
2019-05-01T22:20:20.382Z,8.90
2019-05-01T22:22:53.859Z,8.80
2019-05-01T22:25:27.201Z,8.80
2019-05-01T22:28:00.382Z,8.80
2019-05-01T22:30:42.332Z,8.80
2019-05-01T22:33:09.881Z,8.70
2019-05-01T22:35:40.308Z,8.70
2019-05-01T22:38:09.012Z,8.70
2019-05-01T22:41:05.067Z,8.70
2019-05-01T22:43:21.969Z,8.60
2019-05-01T22:45:50.770Z,8.60
2019-05-01T22:48:19.575Z,8.50
2019-05-01T22:50:49.998Z,8.50
2019-05-01T22:53:18.729Z,8.40
2019-05-01T22:55:47.417Z,8.40
2019-05-01T22:58:16.055Z,8.40
2019-05-01T23:00:52.193Z,8.30
2019-05-01T23:03:22.624Z,8.30
2019-05-01T23:05:51.388Z,8.20
2019-05-01T23:08:20.204Z,8.20
2019-05-01T23:10:48.982Z,8.20
2019-05-01T23:13:17.771Z,8.20
2019-05-01T23:15:46.728Z,8.20
2019-05-01T23:18:17.106Z,8.10
2019-05-01T23:20:45.792Z,8.20
2019-05-01T23:23:14.556Z,8.10
2019-05-01T23:25:43.284Z,8.10
2019-05-01T23:28:11.993Z,8.00
2019-05-01T23:30:40.867Z,8.00
2019-05-01T23:33:09.638Z,8.00
2019-05-01T23:35:38.427Z,8.00
2019-05-01T23:38:07.173Z,7.90
2019-05-01T23:40:36.138Z,7.90
2019-05-01T23:43:04.961Z,7.80
2019-05-01T23:45:33.711Z,7.70
2019-05-01T23:48:02.578Z,7.70
2019-05-01T23:50:31.262Z,7.70
2019-05-01T23:53:00.050Z,7.60
2019-05-01T23:55:28.742Z,7.60
2019-05-01T23:57:57.525Z,7.50
